Terminal Aerodrome Forecast
Issued by NWS Duluth, MN

Home | Current Version | Previous Version | Text Only | Print | Product List | Glossary On
Versions: 1 2 3 4 5 6 7 8 9 10 11 12 13 14 15 16 17 18 19 20 21 22 23
744
FTUS43 KDLH 271120
TAFINL
TAF
KINL 271120Z 2712/2812 02007KT P6SM OVC020
     FM271300 01008KT P6SM OVC020
     FM271700 36009KT P6SM VCSH OVC015
      TEMPO 2723/2802 4SM -SN
     FM280200 33007KT P6SM VCSH OVC015
     FM280600 32005KT P6SM OVC015
     FM280900 31006KT P6SM OVC020=

USA.gov is the U.S. government's official web portal to all federal, state and local government web resources and services.